createdAt,value
2023-02-23T00:01:02.020Z,11.18
2023-02-23T00:05:53.922Z,11.83
2023-02-23T00:10:45.974Z,11.50
2023-02-23T00:15:37.998Z,12.37
2023-02-23T00:20:29.857Z,11.73
2023-02-23T00:25:22.486Z,11.75
2023-02-23T00:30:16.107Z,12.18
2023-02-23T00:35:12.844Z,11.82
2023-02-23T00:40:13.907Z,11.77
2023-02-23T00:45:10.970Z,11.95
2023-02-23T00:50:04.019Z,12.05
2023-02-23T00:54:56.174Z,11.60
2023-02-23T00:59:48.347Z,12.30
2023-02-23T01:04:40.498Z,11.57
2023-02-23T01:09:33.074Z,12.18
2023-02-23T01:14:24.995Z,12.35
2023-02-23T01:19:16.823Z,12.98
2023-02-23T01:24:08.883Z,12.55
2023-02-23T01:29:03.847Z,11.77
2023-02-23T01:33:57.241Z,12.55
2023-02-23T01:38:49.941Z,12.40
2023-02-23T01:44:06.589Z,11.63
2023-02-23T01:49:01.381Z,12.23
2023-02-23T01:54:16.601Z,11.25
2023-02-23T01:59:08.563Z,13.20
2023-02-23T02:04:02.597Z,12.77
2023-02-23T02:08:59.936Z,12.60
2023-02-23T02:14:02.817Z,12.43
2023-02-23T02:24:25.344Z,12.32
2023-02-23T02:29:42.912Z,12.10
2023-02-23T02:34:50.634Z,12.70
2023-02-23T02:40:18.709Z,13.10
2023-02-23T02:45:29.280Z,12.40
2023-02-23T02:50:50.880Z,11.93
2023-02-23T02:55:44.419Z,13.18
2023-02-23T03:01:00.347Z,12.18
2023-02-23T03:06:11.845Z,11.90
2023-02-23T03:11:26.398Z,12.70
2023-02-23T03:16:43.250Z,11.98
2023-02-23T03:22:12.233Z,12.15
2023-02-23T03:27:50.733Z,12.52
2023-02-23T03:33:10.935Z,13.45
2023-02-23T03:38:32.464Z,13.15
2023-02-23T03:43:46.962Z,12.18
2023-02-23T03:48:58.280Z,13.07
2023-02-23T03:54:15.261Z,12.23
2023-02-23T03:59:27.011Z,12.40
2023-02-23T04:04:38.419Z,13.38
2023-02-23T04:09:49.874Z,12.57
2023-02-23T04:15:05.064Z,12.75
2023-02-23T04:19:57.203Z,12.68
2023-02-23T04:24:49.658Z,13.03
2023-02-23T04:29:42.382Z,13.40
2023-02-23T04:34:34.291Z,13.43
2023-02-23T04:39:26.097Z,12.40
2023-02-23T04:44:18.069Z,12.70
2023-02-23T04:49:09.877Z,12.57
2023-02-23T04:54:03.018Z,12.85
2023-02-23T04:58:54.934Z,12.65
2023-02-23T05:03:47.022Z,13.00
2023-02-23T05:08:38.867Z,13.00
2023-02-23T05:13:30.959Z,12.47
2023-02-23T05:18:22.845Z,12.53
2023-02-23T05:23:14.746Z,13.20
2023-02-23T05:28:06.553Z,13.20
2023-02-23T05:32:58.758Z,13.25
2023-02-23T05:37:50.810Z,12.95
2023-02-23T05:42:42.786Z,13.07
2023-02-23T05:47:39.303Z,13.33
2023-02-23T05:52:31.171Z,12.27
2023-02-23T05:57:23.125Z,12.38
2023-02-23T06:02:15.069Z,12.47
2023-02-23T06:07:06.907Z,13.57
2023-02-23T06:12:00.880Z,13.55
2023-02-23T06:16:52.880Z,13.82
2023-02-23T06:21:45.056Z,13.60
2023-02-23T06:26:37.119Z,13.20
2023-02-23T06:31:29.309Z,13.70
2023-02-23T06:36:21.854Z,13.70
2023-02-23T06:41:13.896Z,13.75
2023-02-23T06:46:06.298Z,13.40
2023-02-23T06:50:59.826Z,12.80
2023-02-23T06:55:51.645Z,13.98
2023-02-23T07:00:43.754Z,13.27
2023-02-23T07:05:36.080Z,13.73
2023-02-23T07:10:27.957Z,14.20
2023-02-23T07:15:20.721Z,13.98
2023-02-23T07:25:05.524Z,13.95
2023-02-23T07:34:49.096Z,13.52
2023-02-23T07:39:40.966Z,13.15
2023-02-23T07:44:32.806Z,13.27
2023-02-23T07:49:25.622Z,14.07
2023-02-23T07:54:17.898Z,14.25
2023-02-23T07:59:09.906Z,12.95
2023-02-23T08:04:01.952Z,14.83
2023-02-23T08:08:53.940Z,13.17
2023-02-23T08:13:45.782Z,14.13
2023-02-23T08:18:37.656Z,13.82
2023-02-23T08:23:33.176Z,13.98
2023-02-23T08:28:25.274Z,13.82
2023-02-23T08:33:17.234Z,13.47
2023-02-23T08:38:09.161Z,14.10
2023-02-23T08:43:00.999Z,13.57
2023-02-23T08:47:55.089Z,14.40
2023-02-23T08:52:46.974Z,14.23
2023-02-23T08:57:38.903Z,13.70
2023-02-23T09:02:30.766Z,13.40
2023-02-23T09:07:23.312Z,14.52
2023-02-23T09:12:15.184Z,13.90
2023-02-23T09:17:07.318Z,15.20
2023-02-23T09:21:59.105Z,13.90
2023-02-23T09:26:53.551Z,13.68
2023-02-23T09:31:45.458Z,14.18
2023-02-23T09:36:37.494Z,13.93
2023-02-23T09:41:53.867Z,14.65
2023-02-23T09:47:11.362Z,13.98
2023-02-23T09:52:03.990Z,14.63
2023-02-23T09:56:58.570Z,14.15
2023-02-23T10:02:32.381Z,13.95
2023-02-23T10:07:44.773Z,14.38
2023-02-23T10:12:45.752Z,14.50
2023-02-23T10:17:46.876Z,13.63
2023-02-23T10:22:39.718Z,14.70
2023-02-23T10:27:40.828Z,14.45
2023-02-23T10:33:05.828Z,14.90
2023-02-23T10:37:58.788Z,13.63
2023-02-23T10:47:43.206Z,13.00
2023-02-23T10:52:44.365Z,13.33
2023-02-23T10:57:40.239Z,13.95
2023-02-23T11:02:33.338Z,13.52
2023-02-23T11:07:31.265Z,14.32
2023-02-23T11:12:42.013Z,13.13
2023-02-23T11:17:35.999Z,13.88
2023-02-23T11:22:31.769Z,14.02
2023-02-23T11:27:25.664Z,12.52
2023-02-23T11:32:21.288Z,13.88
2023-02-23T11:37:14.596Z,12.90
2023-02-23T11:42:21.003Z,14.27
2023-02-23T11:47:19.112Z,13.18
2023-02-23T11:52:21.160Z,13.52
2023-02-23T11:57:22.006Z,13.63
2023-02-23T12:02:18.192Z,13.43
2023-02-23T12:07:34.915Z,13.73
2023-02-23T12:12:28.894Z,13.35
2023-02-23T12:17:23.824Z,14.38
2023-02-23T12:22:36.338Z,12.38
2023-02-23T12:27:28.251Z,13.50
2023-02-23T12:32:48.507Z,13.55
2023-02-23T12:37:42.382Z,12.93
2023-02-23T12:42:43.334Z,12.73
2023-02-23T12:47:53.421Z,13.18
2023-02-23T12:52:54.047Z,12.63
2023-02-23T12:57:55.181Z,13.02
2023-02-23T13:02:50.629Z,12.35
2023-02-23T13:08:04.782Z,12.65
2023-02-23T13:13:16.506Z,13.48
2023-02-23T13:18:33.173Z,12.45
2023-02-23T13:23:32.287Z,12.65
2023-02-23T13:28:57.104Z,12.50
2023-02-23T13:33:49.615Z,13.32
2023-02-23T13:39:01.296Z,13.02
2023-02-23T13:44:10.562Z,12.23
2023-02-23T13:49:30.572Z,11.93
2023-02-23T13:54:25.648Z,13.23
2023-02-23T13:59:38.660Z,12.38
2023-02-23T14:09:32.241Z,11.73
2023-02-23T14:14:33.384Z,11.73
2023-02-23T14:19:36.278Z,12.88
2023-02-23T14:29:26.907Z,13.30
2023-02-23T14:34:22.898Z,12.80
2023-02-23T14:39:26.281Z,12.73
2023-02-23T14:44:31.064Z,12.38
2023-02-23T14:49:26.879Z,12.65
2023-02-23T14:54:24.927Z,12.00
2023-02-23T14:59:22.148Z,11.77
2023-02-23T15:04:21.556Z,12.60
2023-02-23T15:09:20.616Z,11.77
2023-02-23T15:14:27.012Z,12.68
2023-02-23T15:19:23.265Z,12.63
2023-02-23T15:24:21.533Z,11.98
2023-02-23T15:29:16.161Z,12.50
2023-02-23T15:34:11.609Z,11.55
2023-02-23T15:39:06.240Z,11.90
2023-02-23T15:44:13.155Z,11.70
2023-02-23T15:49:07.012Z,12.45
2023-02-23T15:54:00.946Z,11.90
2023-02-23T15:58:57.166Z,12.60
2023-02-23T16:04:15.963Z,12.38
2023-02-23T16:09:20.991Z,11.93
2023-02-23T16:14:16.004Z,11.85
2023-02-23T16:19:12.960Z,11.20
2023-02-23T16:24:14.979Z,12.20
2023-02-23T16:29:10.229Z,11.90
2023-02-23T16:34:03.460Z,11.48
2023-02-23T16:39:00.193Z,12.43
2023-02-23T16:43:53.729Z,11.45
2023-02-23T16:48:45.644Z,11.77
2023-02-23T16:53:38.095Z,11.23
2023-02-23T16:58:34.278Z,12.00
2023-02-23T17:03:27.979Z,11.85
2023-02-23T17:08:20.113Z,12.20
2023-02-23T17:13:26.050Z,13.40
2023-02-23T17:18:19.214Z,11.68
2023-02-23T17:23:11.098Z,12.07
2023-02-23T17:28:03.371Z,12.15
2023-02-23T17:32:57.282Z,11.85
2023-02-23T17:37:49.448Z,12.15
2023-02-23T17:42:41.363Z,12.03
2023-02-23T17:47:34.995Z,12.67
2023-02-23T17:52:27.201Z,12.88
2023-02-23T17:57:20.689Z,12.43
2023-02-23T18:02:15.492Z,11.35
2023-02-23T18:07:07.942Z,12.65
2023-02-23T18:11:59.735Z,12.80
2023-02-23T18:16:51.586Z,12.50
2023-02-23T18:21:44.057Z,12.30
2023-02-23T18:26:35.908Z,12.40
2023-02-23T18:31:30.523Z,11.98
2023-02-23T18:36:26.950Z,12.77
2023-02-23T18:41:19.186Z,12.45
2023-02-23T18:46:12.445Z,12.38
2023-02-23T18:51:09.265Z,12.88
2023-02-23T18:56:05.919Z,12.80
2023-02-23T19:00:57.848Z,12.63
2023-02-23T19:05:53.060Z,12.63
2023-02-23T19:10:45.397Z,12.10
2023-02-23T19:15:37.251Z,12.77
2023-02-23T19:20:35.742Z,12.55
2023-02-23T19:25:27.809Z,12.02
2023-02-23T19:30:19.973Z,11.83
2023-02-23T19:35:16.167Z,12.37
2023-02-23T19:40:08.894Z,12.50
2023-02-23T19:45:00.850Z,12.18
2023-02-23T19:49:52.809Z,12.93
2023-02-23T19:54:45.167Z,13.97
2023-02-23T19:59:37.829Z,12.10
2023-02-23T20:04:29.686Z,12.70
2023-02-23T20:09:21.657Z,12.45
2023-02-23T20:14:13.746Z,12.93
2023-02-23T20:19:07.745Z,12.03
2023-02-23T20:24:05.582Z,12.60
2023-02-23T20:28:58.137Z,12.65
2023-02-23T20:33:50.408Z,11.93
2023-02-23T20:38:42.542Z,12.77
2023-02-23T20:43:34.437Z,12.60
2023-02-23T20:48:30.572Z,12.52
2023-02-23T20:53:24.669Z,13.10
2023-02-23T20:58:26.439Z,13.35
2023-02-23T21:03:18.407Z,12.82
2023-02-23T21:08:10.332Z,12.25
2023-02-23T21:13:02.992Z,12.00
2023-02-23T21:17:55.974Z,13.48
2023-02-23T21:27:45.063Z,12.00
2023-02-23T21:32:41.611Z,12.00
2023-02-23T21:37:33.772Z,12.07
2023-02-23T21:42:26.598Z,12.23
2023-02-23T21:47:18.408Z,13.65
2023-02-23T21:52:10.450Z,12.82
2023-02-23T21:57:04.520Z,12.87
2023-02-23T22:01:56.463Z,12.75
2023-02-23T22:06:48.300Z,13.40
2023-02-23T22:11:43.997Z,12.85
2023-02-23T22:16:38.896Z,11.93
2023-02-23T22:21:32.468Z,12.15
2023-02-23T22:26:24.329Z,11.80
2023-02-23T22:31:16.382Z,12.23
2023-02-23T22:36:18.791Z,12.83
2023-02-23T22:41:11.174Z,11.85
2023-02-23T22:46:03.610Z,12.95
2023-02-23T22:50:59.695Z,13.35
2023-02-23T22:55:52.701Z,13.02
2023-02-23T23:01:04.066Z,13.05
2023-02-23T23:05:57.048Z,12.40
2023-02-23T23:15:42.815Z,12.80
2023-02-23T23:20:34.972Z,12.73
2023-02-23T23:25:29.099Z,13.57
2023-02-23T23:30:21.224Z,13.07
2023-02-23T23:35:13.646Z,11.87
2023-02-23T23:40:14.930Z,12.80
2023-02-23T23:45:09.645Z,12.70
2023-02-23T23:50:03.337Z,12.23
2023-02-23T23:54:55.509Z,13.35
2023-02-23T23:59:48.969Z,12.37
